sensor_id;sensor_type;location;lat;lon;timestamp;P1;durP1;ratioP1;P2;durP2;ratioP2
70532;SDS011;58088;51.186;17.130;2023-04-24T00:00:57;10.40;;;6.80;;
70532;SDS011;58088;51.186;17.130;2023-04-24T00:03:25;11.00;;;7.20;;
70532;SDS011;58088;51.186;17.130;2023-04-24T00:05:56;10.30;;;6.30;;
70532;SDS011;58088;51.186;17.130;2023-04-24T00:08:22;12.60;;;6.90;;
70532;SDS011;58088;51.186;17.130;2023-04-24T00:10:49;13.20;;;8.20;;
70532;SDS011;58088;51.186;17.130;2023-04-24T00:13:15;12.20;;;6.90;;
70532;SDS011;58088;51.186;17.130;2023-04-24T00:15:42;13.20;;;6.40;;
70532;SDS011;58088;51.186;17.130;2023-04-24T00:18:08;11.60;;;6.50;;
70532;SDS011;58088;51.186;17.130;2023-04-24T00:20:34;11.50;;;7.10;;
70532;SDS011;58088;51.186;17.130;2023-04-24T00:23:01;12.00;;;6.70;;
70532;SDS011;58088;51.186;17.130;2023-04-24T00:25:27;10.50;;;6.60;;
70532;SDS011;58088;51.186;17.130;2023-04-24T00:27:56;10.50;;;6.40;;
70532;SDS011;58088;51.186;17.130;2023-04-24T00:30:22;11.10;;;6.90;;
70532;SDS011;58088;51.186;17.130;2023-04-24T00:32:48;13.20;;;7.20;;
70532;SDS011;58088;51.186;17.130;2023-04-24T00:35:15;11.90;;;7.10;;
70532;SDS011;58088;51.186;17.130;2023-04-24T00:37:42;14.00;;;7.90;;
70532;SDS011;58088;51.186;17.130;2023-04-24T00:40:09;13.50;;;6.90;;
70532;SDS011;58088;51.186;17.130;2023-04-24T00:42:36;14.50;;;7.60;;
70532;SDS011;58088;51.186;17.130;2023-04-24T00:45:04;13.00;;;7.70;;
70532;SDS011;58088;51.186;17.130;2023-04-24T00:47:32;10.20;;;6.70;;
70532;SDS011;58088;51.186;17.130;2023-04-24T00:50:04;11.50;;;7.20;;
70532;SDS011;58088;51.186;17.130;2023-04-24T00:52:32;12.20;;;8.10;;
70532;SDS011;58088;51.186;17.130;2023-04-24T00:54:58;11.70;;;7.60;;
70532;SDS011;58088;51.186;17.130;2023-04-24T00:57:24;12.10;;;8.20;;
70532;SDS011;58088;51.186;17.130;2023-04-24T00:59:52;13.20;;;7.70;;
70532;SDS011;58088;51.186;17.130;2023-04-24T01:02:19;12.30;;;7.60;;
70532;SDS011;58088;51.186;17.130;2023-04-24T01:04:49;13.50;;;8.10;;
70532;SDS011;58088;51.186;17.130;2023-04-24T01:07:19;13.60;;;7.70;;
70532;SDS011;58088;51.186;17.130;2023-04-24T01:09:47;11.30;;;7.40;;
70532;SDS011;58088;51.186;17.130;2023-04-24T01:12:15;13.50;;;7.60;;
70532;SDS011;58088;51.186;17.130;2023-04-24T01:14:43;12.40;;;7.90;;
70532;SDS011;58088;51.186;17.130;2023-04-24T01:17:10;12.70;;;8.10;;
70532;SDS011;58088;51.186;17.130;2023-04-24T01:19:38;11.80;;;7.60;;
70532;SDS011;58088;51.186;17.130;2023-04-24T01:22:10;15.00;;;8.60;;
70532;SDS011;58088;51.186;17.130;2023-04-24T01:24:37;12.40;;;8.10;;
70532;SDS011;58088;51.186;17.130;2023-04-24T01:27:04;12.80;;;7.90;;
70532;SDS011;58088;51.186;17.130;2023-04-24T01:29:31;12.50;;;8.30;;
70532;SDS011;58088;51.186;17.130;2023-04-24T01:31:57;13.50;;;8.30;;
70532;SDS011;58088;51.186;17.130;2023-04-24T01:34:24;14.90;;;7.60;;
70532;SDS011;58088;51.186;17.130;2023-04-24T01:36:51;12.10;;;8.50;;
70532;SDS011;58088;51.186;17.130;2023-04-24T01:39:17;12.30;;;7.80;;
70532;SDS011;58088;51.186;17.130;2023-04-24T01:41:44;14.40;;;8.80;;
70532;SDS011;58088;51.186;17.130;2023-04-24T01:44:10;12.70;;;8.50;;
70532;SDS011;58088;51.186;17.130;2023-04-24T01:46:37;12.20;;;8.30;;
70532;SDS011;58088;51.186;17.130;2023-04-24T01:49:04;15.70;;;9.30;;
70532;SDS011;58088;51.186;17.130;2023-04-24T01:51:30;13.60;;;9.20;;
70532;SDS011;58088;51.186;17.130;2023-04-24T01:53:57;14.60;;;9.10;;
70532;SDS011;58088;51.186;17.130;2023-04-24T01:56:24;14.60;;;9.20;;
70532;SDS011;58088;51.186;17.130;2023-04-24T01:58:52;16.60;;;9.50;;
70532;SDS011;58088;51.186;17.130;2023-04-24T02:01:20;16.40;;;9.30;;
70532;SDS011;58088;51.186;17.130;2023-04-24T02:04:07;13.90;;;8.90;;
70532;SDS011;58088;51.186;17.130;2023-04-24T02:06:35;16.80;;;9.60;;
70532;SDS011;58088;51.186;17.130;2023-04-24T02:09:01;17.30;;;10.90;;
70532;SDS011;58088;51.186;17.130;2023-04-24T02:11:28;16.30;;;10.20;;
70532;SDS011;58088;51.186;17.130;2023-04-24T02:13:55;17.40;;;10.50;;
70532;SDS011;58088;51.186;17.130;2023-04-24T02:16:21;15.70;;;10.30;;
70532;SDS011;58088;51.186;17.130;2023-04-24T02:18:56;16.40;;;10.00;;
70532;SDS011;58088;51.186;17.130;2023-04-24T02:21:23;17.30;;;10.30;;
70532;SDS011;58088;51.186;17.130;2023-04-24T02:23:50;15.10;;;9.50;;
70532;SDS011;58088;51.186;17.130;2023-04-24T02:26:16;17.80;;;10.80;;
70532;SDS011;58088;51.186;17.130;2023-04-24T02:28:43;14.40;;;9.60;;
70532;SDS011;58088;51.186;17.130;2023-04-24T02:31:10;15.90;;;10.30;;
70532;SDS011;58088;51.186;17.130;2023-04-24T02:33:36;15.90;;;10.40;;
70532;SDS011;58088;51.186;17.130;2023-04-24T02:36:02;18.90;;;10.30;;
70532;SDS011;58088;51.186;17.130;2023-04-24T02:38:29;16.20;;;10.30;;
70532;SDS011;58088;51.186;17.130;2023-04-24T02:40:55;16.50;;;10.60;;
70532;SDS011;58088;51.186;17.130;2023-04-24T02:43:21;16.90;;;9.50;;
70532;SDS011;58088;51.186;17.130;2023-04-24T02:45:47;17.10;;;10.70;;
70532;SDS011;58088;51.186;17.130;2023-04-24T02:48:14;16.90;;;11.00;;
70532;SDS011;58088;51.186;17.130;2023-04-24T02:50:41;15.30;;;9.50;;
70532;SDS011;58088;51.186;17.130;2023-04-24T02:53:07;15.40;;;10.20;;
70532;SDS011;58088;51.186;17.130;2023-04-24T02:55:33;15.00;;;10.20;;
70532;SDS011;58088;51.186;17.130;2023-04-24T02:57:59;17.20;;;11.00;;
70532;SDS011;58088;51.186;17.130;2023-04-24T03:00:25;19.40;;;12.10;;
70532;SDS011;58088;51.186;17.130;2023-04-24T03:02:51;19.00;;;12.20;;
70532;SDS011;58088;51.186;17.130;2023-04-24T03:05:18;17.70;;;11.50;;
70532;SDS011;58088;51.186;17.130;2023-04-24T03:07:45;16.00;;;10.40;;
70532;SDS011;58088;51.186;17.130;2023-04-24T03:10:12;16.90;;;10.70;;
70532;SDS011;58088;51.186;17.130;2023-04-24T03:12:38;19.00;;;11.90;;
70532;SDS011;58088;51.186;17.130;2023-04-24T03:15:04;17.10;;;11.30;;
70532;SDS011;58088;51.186;17.130;2023-04-24T03:17:31;18.10;;;11.10;;
70532;SDS011;58088;51.186;17.130;2023-04-24T03:19:57;19.60;;;11.80;;
70532;SDS011;58088;51.186;17.130;2023-04-24T03:22:23;19.40;;;11.90;;
70532;SDS011;58088;51.186;17.130;2023-04-24T03:24:49;18.80;;;10.30;;
70532;SDS011;58088;51.186;17.130;2023-04-24T03:27:17;17.00;;;10.30;;
70532;SDS011;58088;51.186;17.130;2023-04-24T03:29:50;16.60;;;10.50;;
70532;SDS011;58088;51.186;17.130;2023-04-24T03:32:23;17.60;;;10.50;;
70532;SDS011;58088;51.186;17.130;2023-04-24T03:34:51;15.20;;;9.80;;
70532;SDS011;58088;51.186;17.130;2023-04-24T03:37:17;15.60;;;10.60;;
70532;SDS011;58088;51.186;17.130;2023-04-24T03:39:49;15.90;;;10.00;;
70532;SDS011;58088;51.186;17.130;2023-04-24T03:42:16;16.80;;;10.80;;
70532;SDS011;58088;51.186;17.130;2023-04-24T03:44:50;17.90;;;10.30;;
70532;SDS011;58088;51.186;17.130;2023-04-24T03:47:17;15.60;;;8.70;;
70532;SDS011;58088;51.186;17.130;2023-04-24T03:49:44;15.00;;;9.50;;
70532;SDS011;58088;51.186;17.130;2023-04-24T03:52:16;15.60;;;10.20;;
70532;SDS011;58088;51.186;17.130;2023-04-24T03:54:42;17.40;;;10.20;;
70532;SDS011;58088;51.186;17.130;2023-04-24T03:57:10;15.80;;;9.90;;
70532;SDS011;58088;51.186;17.130;2023-04-24T03:59:38;17.10;;;10.50;;
70532;SDS011;58088;51.186;17.130;2023-04-24T04:02:09;15.60;;;9.80;;
70532;SDS011;58088;51.186;17.130;2023-04-24T04:04:36;17.40;;;10.50;;
70532;SDS011;58088;51.186;17.130;2023-04-24T04:07:02;16.40;;;9.60;;
70532;SDS011;58088;51.186;17.130;2023-04-24T04:09:29;15.20;;;9.60;;
70532;SDS011;58088;51.186;17.130;2023-04-24T04:11:55;16.20;;;11.20;;
70532;SDS011;58088;51.186;17.130;2023-04-24T04:14:22;15.80;;;10.20;;
70532;SDS011;58088;51.186;17.130;2023-04-24T04:16:49;18.10;;;10.70;;
70532;SDS011;58088;51.186;17.130;2023-04-24T04:19:15;15.40;;;10.10;;
70532;SDS011;58088;51.186;17.130;2023-04-24T04:21:41;17.90;;;10.40;;
70532;SDS011;58088;51.186;17.130;2023-04-24T04:24:17;16.90;;;10.70;;
70532;SDS011;58088;51.186;17.130;2023-04-24T04:26:45;15.10;;;9.20;;
70532;SDS011;58088;51.186;17.130;2023-04-24T04:29:18;15.80;;;10.60;;
70532;SDS011;58088;51.186;17.130;2023-04-24T04:31:45;15.30;;;9.90;;
70532;SDS011;58088;51.186;17.130;2023-04-24T04:34:12;17.70;;;10.00;;
70532;SDS011;58088;51.186;17.130;2023-04-24T04:36:41;14.60;;;9.00;;
70532;SDS011;58088;51.186;17.130;2023-04-24T04:39:26;15.30;;;10.10;;
70532;SDS011;58088;51.186;17.130;2023-04-24T04:42:16;13.20;;;8.50;;
70532;SDS011;58088;51.186;17.130;2023-04-24T04:44:43;16.30;;;10.40;;
70532;SDS011;58088;51.186;17.130;2023-04-24T04:47:14;14.30;;;8.80;;
70532;SDS011;58088;51.186;17.130;2023-04-24T04:49:42;16.80;;;10.30;;
70532;SDS011;58088;51.186;17.130;2023-04-24T04:52:15;14.80;;;9.80;;
70532;SDS011;58088;51.186;17.130;2023-04-24T04:54:43;15.20;;;10.40;;
70532;SDS011;58088;51.186;17.130;2023-04-24T04:57:10;15.80;;;9.90;;
70532;SDS011;58088;51.186;17.130;2023-04-24T04:59:38;16.10;;;9.90;;
70532;SDS011;58088;51.186;17.130;2023-04-24T05:02:07;14.30;;;8.10;;
70532;SDS011;58088;51.186;17.130;2023-04-24T05:04:36;14.40;;;9.70;;
70532;SDS011;58088;51.186;17.130;2023-04-24T05:07:02;15.80;;;10.20;;
70532;SDS011;58088;51.186;17.130;2023-04-24T05:09:29;14.10;;;9.30;;
70532;SDS011;58088;51.186;17.130;2023-04-24T05:12:00;15.10;;;9.30;;
70532;SDS011;58088;51.186;17.130;2023-04-24T05:14:29;14.40;;;9.00;;
70532;SDS011;58088;51.186;17.130;2023-04-24T05:16:55;13.10;;;7.90;;
70532;SDS011;58088;51.186;17.130;2023-04-24T05:19:22;15.80;;;9.20;;
70532;SDS011;58088;51.186;17.130;2023-04-24T05:21:48;14.70;;;9.00;;
70532;SDS011;58088;51.186;17.130;2023-04-24T05:24:14;13.80;;;9.20;;
70532;SDS011;58088;51.186;17.130;2023-04-24T05:26:59;14.30;;;9.30;;
70532;SDS011;58088;51.186;17.130;2023-04-24T05:29:31;11.50;;;7.80;;
70532;SDS011;58088;51.186;17.130;2023-04-24T05:31:59;12.30;;;8.50;;
70532;SDS011;58088;51.186;17.130;2023-04-24T05:34:27;13.70;;;8.90;;
70532;SDS011;58088;51.186;17.130;2023-04-24T05:36:55;13.60;;;8.50;;
70532;SDS011;58088;51.186;17.130;2023-04-24T05:39:21;14.40;;;8.20;;
70532;SDS011;58088;51.186;17.130;2023-04-24T05:41:47;15.00;;;8.40;;
70532;SDS011;58088;51.186;17.130;2023-04-24T05:44:13;12.30;;;7.60;;
70532;SDS011;58088;51.186;17.130;2023-04-24T05:46:41;13.90;;;7.50;;
70532;SDS011;58088;51.186;17.130;2023-04-24T05:49:08;14.90;;;8.60;;
70532;SDS011;58088;51.186;17.130;2023-04-24T05:51:35;13.10;;;8.90;;
70532;SDS011;58088;51.186;17.130;2023-04-24T05:54:01;13.20;;;8.20;;
70532;SDS011;58088;51.186;17.130;2023-04-24T05:56:29;14.10;;;8.00;;
70532;SDS011;58088;51.186;17.130;2023-04-24T05:58:56;14.00;;;8.70;;
70532;SDS011;58088;51.186;17.130;2023-04-24T06:01:22;12.20;;;7.90;;
70532;SDS011;58088;51.186;17.130;2023-04-24T06:03:53;13.40;;;7.80;;
70532;SDS011;58088;51.186;17.130;2023-04-24T06:06:20;12.90;;;8.40;;
70532;SDS011;58088;51.186;17.130;2023-04-24T06:08:46;14.50;;;9.00;;
70532;SDS011;58088;51.186;17.130;2023-04-24T06:11:12;11.50;;;7.80;;
70532;SDS011;58088;51.186;17.130;2023-04-24T06:13:39;14.00;;;8.00;;
70532;SDS011;58088;51.186;17.130;2023-04-24T06:16:25;12.20;;;8.10;;
70532;SDS011;58088;51.186;17.130;2023-04-24T06:18:57;12.60;;;7.40;;
70532;SDS011;58088;51.186;17.130;2023-04-24T06:21:25;13.00;;;7.60;;
70532;SDS011;58088;51.186;17.130;2023-04-24T06:23:51;10.50;;;6.70;;
70532;SDS011;58088;51.186;17.130;2023-04-24T06:26:18;10.30;;;6.70;;
70532;SDS011;58088;51.186;17.130;2023-04-24T06:28:45;9.60;;;5.70;;
70532;SDS011;58088;51.186;17.130;2023-04-24T06:31:12;11.00;;;6.50;;
70532;SDS011;58088;51.186;17.130;2023-04-24T06:33:38;10.70;;;6.00;;
70532;SDS011;58088;51.186;17.130;2023-04-24T06:36:05;10.30;;;4.80;;
70532;SDS011;58088;51.186;17.130;2023-04-24T06:38:32;9.30;;;5.20;;
70532;SDS011;58088;51.186;17.130;2023-04-24T06:40:58;8.80;;;4.90;;
70532;SDS011;58088;51.186;17.130;2023-04-24T06:43:24;10.70;;;5.10;;
70532;SDS011;58088;51.186;17.130;2023-04-24T06:45:50;8.30;;;5.30;;
70532;SDS011;58088;51.186;17.130;2023-04-24T06:48:17;10.10;;;5.40;;
70532;SDS011;58088;51.186;17.130;2023-04-24T06:50:43;7.80;;;5.10;;
70532;SDS011;58088;51.186;17.130;2023-04-24T06:53:09;10.50;;;5.40;;
70532;SDS011;58088;51.186;17.130;2023-04-24T06:55:36;8.50;;;5.20;;
70532;SDS011;58088;51.186;17.130;2023-04-24T06:58:03;7.80;;;4.60;;
70532;SDS011;58088;51.186;17.130;2023-04-24T07:00:29;8.00;;;4.90;;
70532;SDS011;58088;51.186;17.130;2023-04-24T07:02:55;8.30;;;4.90;;
70532;SDS011;58088;51.186;17.130;2023-04-24T07:05:23;11.00;;;5.30;;
70532;SDS011;58088;51.186;17.130;2023-04-24T07:07:49;9.90;;;5.20;;
70532;SDS011;58088;51.186;17.130;2023-04-24T07:10:17;9.60;;;5.30;;
70532;SDS011;58088;51.186;17.130;2023-04-24T07:12:43;8.40;;;5.40;;
70532;SDS011;58088;51.186;17.130;2023-04-24T07:15:10;8.50;;;5.10;;
70532;SDS011;58088;51.186;17.130;2023-04-24T07:17:36;11.50;;;4.90;;
70532;SDS011;58088;51.186;17.130;2023-04-24T07:20:04;10.10;;;5.40;;
70532;SDS011;58088;51.186;17.130;2023-04-24T07:22:33;8.00;;;5.40;;
70532;SDS011;58088;51.186;17.130;2023-04-24T07:24:59;8.90;;;4.90;;
70532;SDS011;58088;51.186;17.130;2023-04-24T07:27:25;8.30;;;5.10;;
70532;SDS011;58088;51.186;17.130;2023-04-24T07:29:52;12.30;;;5.30;;
70532;SDS011;58088;51.186;17.130;2023-04-24T07:32:18;9.50;;;5.10;;
70532;SDS011;58088;51.186;17.130;2023-04-24T07:34:44;11.60;;;5.40;;
70532;SDS011;58088;51.186;17.130;2023-04-24T07:37:11;9.50;;;5.50;;
70532;SDS011;58088;51.186;17.130;2023-04-24T07:39:37;10.30;;;5.40;;
70532;SDS011;58088;51.186;17.130;2023-04-24T07:42:03;8.80;;;5.30;;
70532;SDS011;58088;51.186;17.130;2023-04-24T07:44:30;9.40;;;5.00;;
70532;SDS011;58088;51.186;17.130;2023-04-24T07:46:56;10.10;;;5.40;;
70532;SDS011;58088;51.186;17.130;2023-04-24T07:49:22;8.30;;;5.10;;
70532;SDS011;58088;51.186;17.130;2023-04-24T07:51:49;11.60;;;5.00;;
70532;SDS011;58088;51.186;17.130;2023-04-24T07:54:15;9.10;;;5.30;;
70532;SDS011;58088;51.186;17.130;2023-04-24T07:56:43;8.90;;;5.00;;
70532;SDS011;58088;51.186;17.130;2023-04-24T07:59:10;9.90;;;5.10;;
70532;SDS011;58088;51.186;17.130;2023-04-24T08:01:37;10.50;;;5.40;;
70532;SDS011;58088;51.186;17.130;2023-04-24T08:04:04;10.70;;;5.20;;
70532;SDS011;58088;51.186;17.130;2023-04-24T08:06:30;8.50;;;4.90;;
70532;SDS011;58088;51.186;17.130;2023-04-24T08:08:57;7.90;;;5.10;;
70532;SDS011;58088;51.186;17.130;2023-04-24T08:11:24;9.20;;;5.40;;
70532;SDS011;58088;51.186;17.130;2023-04-24T08:13:51;7.10;;;5.00;;
70532;SDS011;58088;51.186;17.130;2023-04-24T08:16:17;8.60;;;4.90;;
70532;SDS011;58088;51.186;17.130;2023-04-24T08:18:44;8.80;;;5.00;;
70532;SDS011;58088;51.186;17.130;2023-04-24T08:21:10;8.40;;;4.90;;
70532;SDS011;58088;51.186;17.130;2023-04-24T08:23:38;9.70;;;5.00;;
70532;SDS011;58088;51.186;17.130;2023-04-24T08:26:04;10.30;;;5.40;;
70532;SDS011;58088;51.186;17.130;2023-04-24T08:28:31;9.40;;;4.90;;
70532;SDS011;58088;51.186;17.130;2023-04-24T08:30:57;10.60;;;4.90;;
70532;SDS011;58088;51.186;17.130;2023-04-24T08:33:23;7.70;;;4.90;;
70532;SDS011;58088;51.186;17.130;2023-04-24T08:35:50;9.20;;;5.10;;
70532;SDS011;58088;51.186;17.130;2023-04-24T08:38:16;7.80;;;5.00;;
70532;SDS011;58088;51.186;17.130;2023-04-24T08:40:42;8.20;;;5.10;;
70532;SDS011;58088;51.186;17.130;2023-04-24T08:43:12;10.30;;;5.20;;
70532;SDS011;58088;51.186;17.130;2023-04-24T08:45:39;8.60;;;5.30;;
70532;SDS011;58088;51.186;17.130;2023-04-24T08:48:07;11.10;;;5.50;;
70532;SDS011;58088;51.186;17.130;2023-04-24T08:50:34;8.60;;;5.40;;
70532;SDS011;58088;51.186;17.130;2023-04-24T08:53:01;9.10;;;5.20;;
70532;SDS011;58088;51.186;17.130;2023-04-24T08:55:29;8.90;;;5.30;;
70532;SDS011;58088;51.186;17.130;2023-04-24T08:57:57;10.30;;;5.00;;
70532;SDS011;58088;51.186;17.130;2023-04-24T09:00:24;8.80;;;5.50;;
70532;SDS011;58088;51.186;17.130;2023-04-24T09:02:53;9.60;;;5.00;;
70532;SDS011;58088;51.186;17.130;2023-04-24T09:05:21;8.80;;;5.60;;
70532;SDS011;58088;51.186;17.130;2023-04-24T09:07:56;7.90;;;4.60;;
70532;SDS011;58088;51.186;17.130;2023-04-24T09:10:25;8.90;;;5.50;;
70532;SDS011;58088;51.186;17.130;2023-04-24T09:12:52;7.60;;;5.10;;
70532;SDS011;58088;51.186;17.130;2023-04-24T09:15:20;10.90;;;5.70;;
70532;SDS011;58088;51.186;17.130;2023-04-24T09:17:47;10.90;;;5.70;;
70532;SDS011;58088;51.186;17.130;2023-04-24T09:20:13;7.80;;;5.60;;
70532;SDS011;58088;51.186;17.130;2023-04-24T09:22:40;7.30;;;4.80;;
70532;SDS011;58088;51.186;17.130;2023-04-24T09:25:08;10.30;;;5.50;;
70532;SDS011;58088;51.186;17.130;2023-04-24T09:27:41;8.20;;;5.40;;
70532;SDS011;58088;51.186;17.130;2023-04-24T09:30:09;9.50;;;5.70;;
70532;SDS011;58088;51.186;17.130;2023-04-24T09:32:36;8.90;;;5.90;;
70532;SDS011;58088;51.186;17.130;2023-04-24T09:35:13;9.20;;;5.50;;
70532;SDS011;58088;51.186;17.130;2023-04-24T09:37:42;8.70;;;5.60;;
70532;SDS011;58088;51.186;17.130;2023-04-24T09:40:16;9.20;;;5.80;;
70532;SDS011;58088;51.186;17.130;2023-04-24T09:43:04;9.50;;;5.50;;
70532;SDS011;58088;51.186;17.130;2023-04-24T09:45:38;8.20;;;4.90;;
70532;SDS011;58088;51.186;17.130;2023-04-24T09:48:08;9.00;;;5.40;;
70532;SDS011;58088;51.186;17.130;2023-04-24T09:50:35;8.20;;;5.10;;
70532;SDS011;58088;51.186;17.130;2023-04-24T09:53:03;8.90;;;5.00;;
70532;SDS011;58088;51.186;17.130;2023-04-24T09:55:31;9.30;;;5.10;;
70532;SDS011;58088;51.186;17.130;2023-04-24T09:57:59;7.90;;;5.60;;
70532;SDS011;58088;51.186;17.130;2023-04-24T10:00:28;10.10;;;5.50;;
70532;SDS011;58088;51.186;17.130;2023-04-24T10:05:36;7.90;;;4.50;;
70532;SDS011;58088;51.186;17.130;2023-04-24T10:08:06;8.10;;;4.60;;
70532;SDS011;58088;51.186;17.130;2023-04-24T10:10:46;8.80;;;4.10;;
70532;SDS011;58088;51.186;17.130;2023-04-24T10:13:13;7.90;;;4.10;;
70532;SDS011;58088;51.186;17.130;2023-04-24T10:15:41;7.00;;;3.80;;
70532;SDS011;58088;51.186;17.130;2023-04-24T10:18:09;6.00;;;3.80;;
70532;SDS011;58088;51.186;17.130;2023-04-24T10:20:38;7.80;;;4.60;;
70532;SDS011;58088;51.186;17.130;2023-04-24T10:23:06;7.70;;;4.90;;
70532;SDS011;58088;51.186;17.130;2023-04-24T10:25:34;7.40;;;4.50;;
70532;SDS011;58088;51.186;17.130;2023-04-24T10:28:02;8.20;;;4.60;;
70532;SDS011;58088;51.186;17.130;2023-04-24T10:30:31;8.20;;;4.20;;
70532;SDS011;58088;51.186;17.130;2023-04-24T10:33:05;7.40;;;4.50;;
70532;SDS011;58088;51.186;17.130;2023-04-24T10:35:42;6.20;;;3.90;;
70532;SDS011;58088;51.186;17.130;2023-04-24T10:38:13;5.90;;;3.80;;
70532;SDS011;58088;51.186;17.130;2023-04-24T10:40:42;8.20;;;4.50;;
70532;SDS011;58088;51.186;17.130;2023-04-24T10:43:09;5.70;;;3.80;;
70532;SDS011;58088;51.186;17.130;2023-04-24T10:45:38;6.60;;;4.10;;
70532;SDS011;58088;51.186;17.130;2023-04-24T10:48:06;6.00;;;3.20;;
70532;SDS011;58088;51.186;17.130;2023-04-24T10:50:48;7.30;;;3.70;;
70532;SDS011;58088;51.186;17.130;2023-04-24T10:53:22;6.60;;;3.70;;
70532;SDS011;58088;51.186;17.130;2023-04-24T10:56:09;6.10;;;3.70;;
70532;SDS011;58088;51.186;17.130;2023-04-24T10:58:41;7.40;;;4.20;;
70532;SDS011;58088;51.186;17.130;2023-04-24T11:01:41;8.00;;;4.40;;
70532;SDS011;58088;51.186;17.130;2023-04-24T11:04:32;6.90;;;4.80;;
70532;SDS011;58088;51.186;17.130;2023-04-24T11:06:59;7.50;;;4.60;;
70532;SDS011;58088;51.186;17.130;2023-04-24T11:09:28;8.70;;;4.60;;
70532;SDS011;58088;51.186;17.130;2023-04-24T11:12:09;7.00;;;4.90;;
70532;SDS011;58088;51.186;17.130;2023-04-24T11:17:32;8.40;;;4.80;;
70532;SDS011;58088;51.186;17.130;2023-04-24T11:20:02;7.70;;;4.70;;
70532;SDS011;58088;51.186;17.130;2023-04-24T11:22:33;7.30;;;4.40;;
70532;SDS011;58088;51.186;17.130;2023-04-24T11:25:02;8.00;;;4.90;;
70532;SDS011;58088;51.186;17.130;2023-04-24T11:27:38;8.40;;;4.40;;
70532;SDS011;58088;51.186;17.130;2023-04-24T11:30:10;7.80;;;4.90;;
70532;SDS011;58088;51.186;17.130;2023-04-24T11:32:41;6.20;;;3.30;;
70532;SDS011;58088;51.186;17.130;2023-04-24T11:35:18;7.40;;;4.10;;
70532;SDS011;58088;51.186;17.130;2023-04-24T11:37:52;8.60;;;4.60;;
70532;SDS011;58088;51.186;17.130;2023-04-24T11:40:22;7.90;;;4.40;;
70532;SDS011;58088;51.186;17.130;2023-04-24T11:42:51;8.10;;;4.40;;
70532;SDS011;58088;51.186;17.130;2023-04-24T11:45:25;6.70;;;4.30;;
70532;SDS011;58088;51.186;17.130;2023-04-24T11:47:54;7.60;;;4.20;;
70532;SDS011;58088;51.186;17.130;2023-04-24T11:50:23;6.70;;;3.90;;
70532;SDS011;58088;51.186;17.130;2023-04-24T11:52:56;6.50;;;4.20;;
70532;SDS011;58088;51.186;17.130;2023-04-24T11:55:26;9.30;;;4.50;;
70532;SDS011;58088;51.186;17.130;2023-04-24T11:57:59;7.70;;;4.30;;
70532;SDS011;58088;51.186;17.130;2023-04-24T12:00:30;5.60;;;3.50;;
70532;SDS011;58088;51.186;17.130;2023-04-24T12:03:10;6.40;;;3.70;;
70532;SDS011;58088;51.186;17.130;2023-04-24T12:05:38;8.00;;;4.50;;
70532;SDS011;58088;51.186;17.130;2023-04-24T12:08:06;8.20;;;4.30;;
70532;SDS011;58088;51.186;17.130;2023-04-24T12:10:33;6.50;;;4.00;;
70532;SDS011;58088;51.186;17.130;2023-04-24T12:13:02;7.60;;;4.80;;
70532;SDS011;58088;51.186;17.130;2023-04-24T12:15:29;8.80;;;4.70;;
70532;SDS011;58088;51.186;17.130;2023-04-24T12:17:56;9.00;;;4.30;;
70532;SDS011;58088;51.186;17.130;2023-04-24T12:20:30;8.60;;;4.50;;
70532;SDS011;58088;51.186;17.130;2023-04-24T12:22:59;6.50;;;3.70;;
70532;SDS011;58088;51.186;17.130;2023-04-24T12:25:38;7.10;;;3.80;;
70532;SDS011;58088;51.186;17.130;2023-04-24T12:30:32;8.40;;;4.00;;
70532;SDS011;58088;51.186;17.130;2023-04-24T12:33:01;7.70;;;4.30;;
70532;SDS011;58088;51.186;17.130;2023-04-24T12:35:30;6.10;;;4.10;;
70532;SDS011;58088;51.186;17.130;2023-04-24T12:38:09;8.00;;;4.40;;
70532;SDS011;58088;51.186;17.130;2023-04-24T12:40:38;7.00;;;4.00;;
70532;SDS011;58088;51.186;17.130;2023-04-24T12:43:18;8.60;;;4.40;;
70532;SDS011;58088;51.186;17.130;2023-04-24T12:45:47;9.50;;;4.30;;
70532;SDS011;58088;51.186;17.130;2023-04-24T12:48:14;6.30;;;3.90;;
70532;SDS011;58088;51.186;17.130;2023-04-24T12:50:41;6.90;;;3.70;;
70532;SDS011;58088;51.186;17.130;2023-04-24T12:53:09;9.60;;;4.00;;
70532;SDS011;58088;51.186;17.130;2023-04-24T12:55:36;9.00;;;4.00;;
70532;SDS011;58088;51.186;17.130;2023-04-24T12:58:02;6.70;;;4.00;;
70532;SDS011;58088;51.186;17.130;2023-04-24T13:00:29;6.90;;;4.30;;
70532;SDS011;58088;51.186;17.130;2023-04-24T13:02:55;6.30;;;4.00;;
70532;SDS011;58088;51.186;17.130;2023-04-24T13:05:21;6.00;;;4.00;;
70532;SDS011;58088;51.186;17.130;2023-04-24T13:07:47;6.60;;;3.70;;
70532;SDS011;58088;51.186;17.130;2023-04-24T13:10:13;6.90;;;4.30;;
70532;SDS011;58088;51.186;17.130;2023-04-24T13:12:40;6.80;;;4.40;;
70532;SDS011;58088;51.186;17.130;2023-04-24T13:15:06;6.00;;;3.40;;
70532;SDS011;58088;51.186;17.130;2023-04-24T13:17:33;6.20;;;3.80;;
70532;SDS011;58088;51.186;17.130;2023-04-24T13:19:59;8.70;;;4.00;;
70532;SDS011;58088;51.186;17.130;2023-04-24T13:22:25;7.80;;;4.00;;
70532;SDS011;58088;51.186;17.130;2023-04-24T13:24:52;6.70;;;3.50;;
70532;SDS011;58088;51.186;17.130;2023-04-24T13:27:18;7.30;;;4.20;;
70532;SDS011;58088;51.186;17.130;2023-04-24T13:29:45;7.70;;;3.20;;
70532;SDS011;58088;51.186;17.130;2023-04-24T13:32:11;7.10;;;2.80;;
70532;SDS011;58088;51.186;17.130;2023-04-24T13:34:37;5.30;;;2.40;;
70532;SDS011;58088;51.186;17.130;2023-04-24T13:37:04;4.60;;;2.30;;
70532;SDS011;58088;51.186;17.130;2023-04-24T13:39:31;3.20;;;1.50;;
70532;SDS011;58088;51.186;17.130;2023-04-24T13:41:58;3.90;;;1.20;;
70532;SDS011;58088;51.186;17.130;2023-04-24T13:44:25;3.60;;;1.00;;
70532;SDS011;58088;51.186;17.130;2023-04-24T13:46:53;3.30;;;1.20;;
70532;SDS011;58088;51.186;17.130;2023-04-24T13:49:23;2.00;;;0.90;;
70532;SDS011;58088;51.186;17.130;2023-04-24T13:51:53;3.60;;;1.10;;
70532;SDS011;58088;51.186;17.130;2023-04-24T13:54:21;2.80;;;1.00;;
70532;SDS011;58088;51.186;17.130;2023-04-24T13:56:49;3.90;;;1.70;;
70532;SDS011;58088;51.186;17.130;2023-04-24T13:59:16;2.90;;;1.30;;
70532;SDS011;58088;51.186;17.130;2023-04-24T14:01:42;5.20;;;1.30;;
70532;SDS011;58088;51.186;17.130;2023-04-24T14:04:10;3.20;;;1.10;;
70532;SDS011;58088;51.186;17.130;2023-04-24T14:06:37;3.70;;;1.30;;
70532;SDS011;58088;51.186;17.130;2023-04-24T14:09:03;3.10;;;1.10;;
70532;SDS011;58088;51.186;17.130;2023-04-24T14:11:30;3.30;;;1.20;;
70532;SDS011;58088;51.186;17.130;2023-04-24T14:13:56;3.20;;;1.10;;
70532;SDS011;58088;51.186;17.130;2023-04-24T14:16:22;3.50;;;1.40;;
70532;SDS011;58088;51.186;17.130;2023-04-24T14:18:49;4.30;;;1.70;;
70532;SDS011;58088;51.186;17.130;2023-04-24T14:21:19;3.80;;;1.50;;
70532;SDS011;58088;51.186;17.130;2023-04-24T14:23:45;4.80;;;1.70;;
70532;SDS011;58088;51.186;17.130;2023-04-24T14:26:11;2.60;;;1.10;;
70532;SDS011;58088;51.186;17.130;2023-04-24T14:28:37;3.70;;;1.20;;
70532;SDS011;58088;51.186;17.130;2023-04-24T14:31:04;3.70;;;1.10;;
70532;SDS011;58088;51.186;17.130;2023-04-24T14:33:31;2.30;;;1.00;;
70532;SDS011;58088;51.186;17.130;2023-04-24T14:35:57;3.50;;;1.10;;
70532;SDS011;58088;51.186;17.130;2023-04-24T14:38:23;3.40;;;1.00;;
70532;SDS011;58088;51.186;17.130;2023-04-24T14:40:50;4.70;;;1.30;;